createdAt,value
2023-04-17T00:01:05.889Z,12.52
2023-04-17T00:03:33.176Z,12.80
2023-04-17T00:06:00.726Z,12.45
2023-04-17T00:08:27.823Z,12.73
2023-04-17T00:11:04.571Z,12.35
2023-04-17T00:13:34.658Z,12.35
2023-04-17T00:16:02.154Z,12.13
2023-04-17T00:18:29.232Z,13.30
2023-04-17T00:20:56.843Z,12.43
2023-04-17T00:23:25.681Z,12.65
2023-04-17T00:25:53.063Z,13.10
2023-04-17T00:28:20.172Z,13.07
2023-04-17T00:30:47.782Z,12.73
2023-04-17T00:33:14.848Z,13.02
2023-04-17T00:35:42.254Z,12.63
2023-04-17T00:38:09.542Z,13.25
2023-04-17T00:40:37.069Z,13.65
2023-04-17T00:43:06.723Z,13.88
2023-04-17T00:45:35.402Z,12.70
2023-04-17T00:48:05.056Z,13.38
2023-04-17T00:50:33.293Z,12.82
2023-04-17T00:53:01.296Z,12.80
2023-04-17T00:55:30.779Z,13.85
2023-04-17T00:57:58.848Z,14.18
2023-04-17T01:00:26.428Z,16.58
2023-04-17T01:02:55.623Z,16.50
2023-04-17T01:05:23.905Z,15.32
2023-04-17T01:07:51.346Z,15.27
2023-04-17T01:10:18.824Z,14.25
2023-04-17T01:12:49.307Z,14.45
2023-04-17T01:15:17.065Z,13.90
2023-04-17T01:17:44.152Z,15.05
2023-04-17T01:20:12.039Z,14.85
2023-04-17T01:22:39.107Z,14.30
2023-04-17T01:25:06.632Z,16.25
2023-04-17T01:27:36.328Z,15.13
2023-04-17T01:30:04.022Z,15.32
2023-04-17T01:32:35.698Z,14.70
2023-04-17T01:35:03.647Z,14.90
2023-04-17T01:37:30.756Z,16.85
2023-04-17T01:39:59.089Z,14.73
2023-04-17T01:42:26.523Z,16.02
2023-04-17T01:44:53.950Z,17.05
2023-04-17T01:47:21.028Z,15.27
2023-04-17T01:49:48.386Z,16.98
2023-04-17T01:52:15.513Z,16.70
2023-04-17T01:54:42.905Z,15.38
2023-04-17T01:57:09.897Z,16.35
2023-04-17T01:59:37.947Z,17.52
2023-04-17T02:02:05.161Z,18.20
2023-04-17T02:04:32.736Z,17.67
2023-04-17T02:06:59.900Z,17.17
2023-04-17T02:09:27.363Z,18.70
2023-04-17T02:11:54.353Z,19.55
2023-04-17T02:14:21.826Z,20.45
2023-04-17T02:16:50.204Z,22.25
2023-04-17T02:19:17.548Z,21.00
2023-04-17T02:21:44.566Z,21.20
2023-04-17T02:24:11.958Z,20.85
2023-04-17T02:26:39.158Z,23.10
2023-04-17T02:29:06.832Z,22.58
2023-04-17T02:31:33.943Z,21.65
2023-04-17T02:34:01.317Z,21.27
2023-04-17T02:36:28.544Z,20.90
2023-04-17T02:38:56.360Z,21.23
2023-04-17T02:41:23.404Z,20.55
2023-04-17T02:43:50.900Z,20.35
2023-04-17T02:46:18.587Z,21.55
2023-04-17T02:48:46.038Z,20.00
2023-04-17T02:51:13.462Z,20.60
2023-04-17T02:53:41.396Z,19.88
2023-04-17T02:56:08.766Z,19.95
2023-04-17T02:58:36.967Z,18.67
2023-04-17T03:01:06.664Z,18.88
2023-04-17T03:03:42.056Z,18.50
2023-04-17T03:06:12.393Z,20.05
2023-04-17T03:08:39.712Z,20.23
2023-04-17T03:11:07.061Z,19.35
2023-04-17T03:13:38.072Z,19.17
2023-04-17T03:16:06.328Z,19.83
2023-04-17T03:18:40.855Z,20.00
2023-04-17T03:21:08.581Z,18.63
2023-04-17T03:23:36.869Z,20.08
2023-04-17T03:26:06.571Z,19.25
2023-04-17T03:28:34.504Z,21.42
2023-04-17T03:31:02.614Z,19.77
2023-04-17T03:33:32.083Z,19.45
2023-04-17T03:35:59.188Z,20.67
2023-04-17T03:38:26.699Z,18.98
2023-04-17T03:40:54.953Z,19.88
2023-04-17T03:43:24.869Z,20.73
2023-04-17T03:45:51.957Z,19.60
2023-04-17T03:48:19.552Z,20.60
2023-04-17T03:50:48.835Z,20.23
2023-04-17T03:53:16.550Z,19.30
2023-04-17T03:55:43.894Z,19.45
2023-04-17T03:58:21.277Z,20.10
2023-04-17T04:00:50.165Z,19.75
2023-04-17T04:03:17.880Z,19.73
2023-04-17T04:05:45.713Z,21.27
2023-04-17T04:08:13.192Z,22.45
2023-04-17T04:13:22.591Z,20.23
2023-04-17T04:15:56.771Z,19.35
2023-04-17T04:18:27.065Z,19.38
2023-04-17T04:20:54.436Z,19.05
2023-04-17T04:23:28.200Z,19.58
2023-04-17T04:25:56.941Z,20.42
2023-04-17T04:29:00.469Z,20.70
2023-04-17T04:31:51.078Z,20.88
2023-04-17T04:34:25.322Z,20.55
2023-04-17T04:36:52.757Z,21.73
2023-04-17T04:39:40.418Z,20.45
2023-04-17T04:42:10.220Z,20.85
2023-04-17T04:44:55.369Z,21.95
2023-04-17T04:47:25.934Z,21.88
2023-04-17T04:49:54.432Z,21.63
2023-04-17T04:52:22.754Z,22.67
2023-04-17T04:54:53.498Z,20.95
2023-04-17T04:57:20.555Z,22.95
2023-04-17T04:59:50.052Z,24.55
2023-04-17T05:02:35.123Z,22.38
2023-04-17T05:05:04.487Z,22.80
2023-04-17T05:07:33.922Z,21.80
2023-04-17T05:10:01.707Z,21.70
2023-04-17T05:12:35.150Z,21.92
2023-04-17T05:15:04.161Z,23.30
2023-04-17T05:17:31.602Z,22.80
2023-04-17T05:19:59.092Z,22.40
2023-04-17T05:22:27.573Z,22.95
2023-04-17T05:25:05.113Z,20.35
2023-04-17T05:27:32.231Z,23.10
2023-04-17T05:30:00.449Z,23.73
2023-04-17T05:32:27.726Z,23.13
2023-04-17T05:34:59.334Z,19.80
2023-04-17T05:37:28.212Z,19.67
2023-04-17T05:39:56.706Z,20.20
2023-04-17T05:42:23.945Z,19.63
2023-04-17T05:44:51.976Z,20.15
2023-04-17T05:47:19.474Z,20.52
2023-04-17T05:49:48.593Z,20.85
2023-04-17T05:52:16.040Z,21.80
2023-04-17T05:54:44.758Z,21.05
2023-04-17T05:57:13.409Z,22.10
2023-04-17T05:59:40.786Z,22.65
2023-04-17T06:02:10.751Z,23.58
2023-04-17T06:04:38.528Z,22.42
2023-04-17T06:07:06.253Z,22.33
2023-04-17T06:09:36.812Z,23.30
2023-04-17T06:12:04.942Z,19.40
2023-04-17T06:14:33.257Z,19.05
2023-04-17T06:17:03.921Z,20.85
2023-04-17T06:19:31.324Z,20.70
2023-04-17T06:21:58.448Z,19.20
2023-04-17T06:24:26.614Z,18.90
2023-04-17T06:26:54.927Z,19.88
2023-04-17T06:29:22.877Z,19.85
2023-04-17T06:31:50.219Z,18.58
2023-04-17T06:34:21.762Z,18.13
2023-04-17T06:36:49.422Z,18.40
2023-04-17T06:39:18.375Z,17.92
2023-04-17T06:41:47.032Z,18.10
2023-04-17T06:44:14.636Z,18.05
2023-04-17T06:46:46.864Z,17.88
2023-04-17T06:49:14.710Z,18.80
2023-04-17T06:51:45.888Z,16.30
2023-04-17T06:54:14.104Z,20.05
2023-04-17T06:56:41.131Z,18.95
2023-04-17T06:59:09.351Z,19.30
2023-04-17T07:01:38.144Z,18.90
2023-04-17T07:04:06.172Z,18.95
2023-04-17T07:06:34.594Z,18.60
2023-04-17T07:09:02.136Z,18.55
2023-04-17T07:11:29.722Z,18.92
2023-04-17T07:13:57.154Z,19.63
2023-04-17T07:16:24.273Z,20.27
2023-04-17T07:18:52.203Z,18.20
2023-04-17T07:21:19.444Z,19.35
2023-04-17T07:23:47.333Z,18.70
2023-04-17T07:26:14.444Z,18.67
2023-04-17T07:28:42.027Z,17.98
2023-04-17T07:31:09.368Z,17.48
2023-04-17T07:33:40.089Z,17.45
2023-04-17T07:36:10.180Z,17.20
2023-04-17T07:38:40.318Z,16.20
2023-04-17T07:41:08.226Z,17.65
2023-04-17T07:43:35.739Z,16.73
2023-04-17T07:46:02.892Z,16.38
2023-04-17T07:48:31.271Z,16.35
2023-04-17T07:51:01.635Z,17.65
2023-04-17T07:53:29.822Z,15.75
2023-04-17T07:55:58.411Z,15.02
2023-04-17T07:58:27.234Z,15.73
2023-04-17T08:00:54.337Z,15.32
2023-04-17T08:03:22.309Z,15.57
2023-04-17T08:05:52.031Z,15.32
2023-04-17T08:08:20.030Z,15.95
2023-04-17T08:10:47.076Z,16.10
2023-04-17T08:13:14.452Z,17.00
2023-04-17T08:15:41.873Z,19.15
2023-04-17T08:18:10.574Z,17.42
2023-04-17T08:20:37.698Z,18.27
2023-04-17T08:23:06.082Z,17.00
2023-04-17T08:25:33.365Z,17.40
2023-04-17T08:28:00.801Z,17.35
2023-04-17T08:30:27.994Z,17.27
2023-04-17T08:32:57.464Z,18.38
2023-04-17T08:35:25.465Z,16.85
2023-04-17T08:37:55.510Z,16.55
2023-04-17T08:40:24.967Z,17.15
2023-04-17T08:42:54.334Z,17.30
2023-04-17T08:45:24.282Z,18.27
2023-04-17T08:47:51.815Z,17.65
2023-04-17T08:50:20.476Z,18.35
2023-04-17T08:52:49.655Z,16.23
2023-04-17T08:55:22.625Z,16.02
2023-04-17T08:57:56.842Z,17.75
2023-04-17T09:00:26.046Z,18.98
2023-04-17T09:02:55.497Z,16.58
2023-04-17T09:05:23.617Z,17.77
2023-04-17T09:08:06.056Z,15.73
2023-04-17T09:10:37.061Z,14.73
2023-04-17T09:13:04.999Z,16.02
2023-04-17T09:15:33.502Z,13.82
2023-04-17T09:18:00.953Z,13.77
2023-04-17T09:20:28.147Z,13.90
2023-04-17T09:23:05.478Z,13.02
2023-04-17T09:25:32.739Z,14.30
2023-04-17T09:28:14.458Z,13.18
2023-04-17T09:30:42.436Z,13.88
2023-04-17T09:33:10.684Z,13.88
2023-04-17T09:35:39.917Z,14.25
2023-04-17T09:38:07.874Z,13.15
2023-04-17T09:40:40.726Z,14.35
2023-04-17T09:43:10.664Z,12.25
2023-04-17T09:45:41.862Z,12.68
2023-04-17T09:48:12.261Z,11.68
2023-04-17T09:50:39.913Z,12.32
2023-04-17T09:53:08.222Z,12.40
2023-04-17T09:55:38.146Z,11.98
2023-04-17T09:58:07.616Z,14.38
2023-04-17T10:00:36.908Z,15.73
2023-04-17T10:03:05.260Z,14.75
2023-04-17T10:05:32.822Z,15.02
2023-04-17T10:08:00.643Z,15.10
2023-04-17T10:10:33.823Z,14.98
2023-04-17T10:13:03.451Z,13.80
2023-04-17T10:15:31.181Z,12.65
2023-04-17T10:18:25.204Z,12.82
2023-04-17T10:20:53.811Z,12.35
2023-04-17T10:23:34.827Z,13.52
2023-04-17T10:26:27.217Z,14.98
2023-04-17T10:28:57.768Z,11.93
2023-04-17T10:32:04.007Z,13.32
2023-04-17T10:34:38.972Z,11.73
2023-04-17T10:37:06.986Z,13.10
2023-04-17T10:39:56.843Z,12.45
2023-04-17T10:42:25.632Z,13.10
2023-04-17T10:44:59.672Z,14.18
2023-04-17T10:47:35.112Z,14.70
2023-04-17T10:50:04.400Z,13.05
2023-04-17T10:52:45.091Z,12.27
2023-04-17T10:55:23.012Z,12.82
2023-04-17T10:57:54.119Z,11.85
2023-04-17T11:00:35.877Z,12.10
2023-04-17T11:03:05.096Z,12.18
2023-04-17T11:05:33.054Z,10.85
2023-04-17T11:08:00.403Z,11.82
2023-04-17T11:10:27.781Z,11.13
2023-04-17T11:12:56.689Z,11.52
2023-04-17T11:15:31.742Z,13.63
2023-04-17T11:18:00.241Z,12.25
2023-04-17T11:20:30.288Z,12.13
2023-04-17T11:23:04.496Z,12.18
2023-04-17T11:25:34.156Z,12.43
2023-04-17T11:28:06.504Z,11.45
2023-04-17T11:30:36.516Z,11.75
2023-04-17T11:33:06.377Z,12.13
2023-04-17T11:35:37.789Z,11.55
2023-04-17T11:38:06.831Z,11.82
2023-04-17T11:40:34.297Z,12.50
2023-04-17T11:43:08.190Z,11.52
2023-04-17T11:45:37.120Z,15.25
2023-04-17T11:48:04.576Z,14.00
2023-04-17T11:50:32.777Z,12.60
2023-04-17T11:53:04.661Z,11.02
2023-04-17T11:55:34.397Z,10.30
2023-04-17T11:58:06.202Z,10.90
2023-04-17T12:00:34.372Z,11.38
2023-04-17T12:03:03.076Z,11.55
2023-04-17T12:05:31.530Z,12.05
2023-04-17T12:08:04.437Z,13.02
2023-04-17T12:10:52.177Z,11.50
2023-04-17T12:13:19.243Z,10.43
2023-04-17T12:15:46.662Z,10.63
2023-04-17T12:18:13.890Z,11.07
2023-04-17T12:20:41.514Z,10.57
2023-04-17T12:23:08.711Z,10.88
2023-04-17T12:25:36.397Z,11.43
2023-04-17T12:28:05.000Z,10.23
2023-04-17T12:30:35.958Z,9.85
2023-04-17T12:33:03.211Z,9.27
2023-04-17T12:35:30.857Z,9.32
2023-04-17T12:37:58.002Z,10.07
2023-04-17T12:40:25.704Z,9.80
2023-04-17T12:42:52.805Z,9.30
2023-04-17T12:45:20.766Z,9.32
2023-04-17T12:47:48.147Z,15.23
2023-04-17T12:50:15.586Z,10.38
2023-04-17T12:52:42.816Z,9.80
2023-04-17T12:55:11.153Z,9.07
2023-04-17T12:57:38.374Z,9.40
2023-04-17T13:00:07.199Z,8.68
2023-04-17T13:02:34.530Z,8.38
2023-04-17T13:05:02.651Z,8.98
2023-04-17T13:07:30.435Z,7.95
2023-04-17T13:09:57.917Z,8.43
2023-04-17T13:12:26.323Z,8.18
2023-04-17T13:14:54.159Z,8.20
2023-04-17T13:17:22.171Z,8.38
2023-04-17T13:19:49.521Z,8.45
2023-04-17T13:22:17.893Z,8.45
2023-04-17T13:24:45.561Z,7.90
2023-04-17T13:27:12.871Z,8.80
2023-04-17T13:29:40.413Z,9.45
2023-04-17T13:32:07.577Z,8.05
2023-04-17T13:34:34.942Z,8.55
2023-04-17T13:37:02.032Z,8.23
2023-04-17T13:39:29.645Z,8.23
2023-04-17T13:41:58.154Z,8.75
2023-04-17T13:44:26.033Z,8.50
2023-04-17T13:46:53.187Z,8.85
2023-04-17T13:49:21.059Z,9.55
2023-04-17T13:51:48.226Z,8.48
2023-04-17T13:54:15.755Z,9.25
2023-04-17T13:56:43.012Z,9.30
2023-04-17T13:59:10.957Z,9.13
2023-04-17T14:01:38.391Z,9.27
2023-04-17T14:04:06.284Z,8.65
2023-04-17T14:06:36.886Z,8.63
2023-04-17T14:09:05.813Z,8.23
2023-04-17T14:11:33.166Z,8.63
2023-04-17T14:14:00.661Z,9.35
2023-04-17T14:16:27.897Z,9.27
2023-04-17T14:18:56.655Z,10.55
2023-04-17T14:21:25.006Z,9.63
2023-04-17T14:23:52.338Z,9.32
2023-04-17T14:26:19.424Z,8.68
2023-04-17T14:28:46.703Z,8.63
2023-04-17T14:31:13.813Z,9.20
2023-04-17T14:33:41.134Z,8.95
2023-04-17T14:36:08.535Z,8.43
2023-04-17T14:38:36.055Z,8.32
2023-04-17T14:41:03.237Z,8.43
2023-04-17T14:43:30.837Z,8.82
2023-04-17T14:45:57.926Z,10.50
2023-04-17T14:48:25.657Z,12.75
2023-04-17T14:50:52.783Z,12.90
2023-04-17T14:53:21.586Z,11.15
2023-04-17T14:55:49.058Z,8.60
2023-04-17T14:58:16.473Z,8.68
2023-04-17T15:00:43.523Z,9.73
2023-04-17T15:03:11.761Z,10.57
2023-04-17T15:05:38.904Z,10.50
2023-04-17T15:08:06.262Z,9.25
2023-04-17T15:10:44.235Z,9.48
2023-04-17T15:13:15.689Z,8.68
2023-04-17T15:15:42.805Z,9.40
2023-04-17T15:18:11.028Z,7.97
2023-04-17T15:20:38.058Z,7.93
2023-04-17T15:23:05.374Z,7.65
2023-04-17T15:25:32.443Z,8.70
2023-04-17T15:27:59.747Z,8.85
2023-04-17T15:30:26.852Z,7.47
2023-04-17T15:32:54.177Z,7.70
2023-04-17T15:35:21.344Z,7.38
2023-04-17T15:37:48.622Z,8.85
2023-04-17T15:40:16.411Z,7.75
2023-04-17T15:42:44.113Z,7.90
2023-04-17T15:45:11.337Z,8.10
2023-04-17T15:47:38.699Z,7.45
2023-04-17T15:50:06.281Z,8.25
2023-04-17T15:52:34.647Z,8.45
2023-04-17T15:55:01.678Z,8.55
2023-04-17T15:57:29.140Z,9.02
2023-04-17T15:59:56.242Z,9.73
2023-04-17T16:02:23.628Z,9.07
2023-04-17T16:04:51.406Z,9.90
2023-04-17T16:07:19.370Z,8.57
2023-04-17T16:09:48.036Z,8.77
2023-04-17T16:12:15.379Z,9.02
2023-04-17T16:14:42.543Z,10.15
2023-04-17T16:17:09.857Z,9.80
2023-04-17T16:19:36.992Z,9.73
2023-04-17T16:22:04.283Z,9.73
2023-04-17T16:24:31.475Z,10.25
2023-04-17T16:27:01.176Z,8.80
2023-04-17T16:29:28.332Z,9.52
2023-04-17T16:31:56.299Z,10.02
2023-04-17T16:34:23.418Z,8.93
2023-04-17T16:36:50.886Z,10.15
2023-04-17T16:39:17.969Z,10.32
2023-04-17T16:41:45.823Z,8.88
2023-04-17T16:44:13.074Z,9.05
2023-04-17T16:47:02.996Z,9.73
2023-04-17T16:49:27.846Z,9.85
2023-04-17T16:51:55.174Z,9.38
2023-04-17T16:54:22.310Z,10.68
2023-04-17T16:56:50.123Z,11.00
2023-04-17T16:59:17.178Z,9.50
2023-04-17T17:01:44.695Z,9.93
2023-04-17T17:04:11.730Z,10.27
2023-04-17T17:06:39.127Z,10.07
2023-04-17T17:09:06.178Z,9.75
2023-04-17T17:11:33.689Z,10.02
2023-04-17T17:14:01.314Z,9.52
2023-04-17T17:16:28.856Z,9.93
2023-04-17T17:18:56.375Z,10.75
2023-04-17T17:21:23.747Z,10.65
2023-04-17T17:23:50.837Z,11.10
2023-04-17T17:26:18.254Z,10.23
2023-04-17T17:28:50.970Z,11.07
2023-04-17T17:31:18.906Z,11.15
2023-04-17T17:33:50.246Z,11.07
2023-04-17T17:36:17.807Z,11.80
2023-04-17T17:38:45.168Z,11.88
2023-04-17T17:41:12.514Z,12.10
2023-04-17T17:43:39.523Z,11.40
2023-04-17T17:46:06.902Z,12.40
2023-04-17T17:48:34.496Z,12.88
2023-04-17T17:51:01.776Z,12.68
2023-04-17T17:53:28.928Z,12.48
2023-04-17T17:55:57.279Z,12.77
2023-04-17T17:58:24.862Z,12.27
2023-04-17T18:00:52.464Z,13.00
2023-04-17T18:03:20.673Z,14.13
2023-04-17T18:05:48.188Z,13.52
2023-04-17T18:08:16.767Z,13.50
2023-04-17T18:10:44.104Z,13.25
2023-04-17T18:13:11.115Z,13.50
2023-04-17T18:15:38.503Z,14.38
2023-04-17T18:18:05.682Z,14.40
2023-04-17T18:20:40.300Z,15.07
2023-04-17T18:23:07.505Z,14.98
2023-04-17T18:25:39.058Z,16.20
2023-04-17T18:28:06.781Z,16.00
2023-04-17T18:30:34.128Z,16.23
2023-04-17T18:33:01.261Z,16.05
2023-04-17T18:35:28.642Z,15.98
2023-04-17T18:37:56.592Z,16.65
2023-04-17T18:40:23.970Z,14.65
2023-04-17T18:42:51.066Z,15.75
2023-04-17T18:45:18.578Z,14.73
2023-04-17T18:47:45.819Z,14.50
2023-04-17T18:50:13.296Z,14.52
2023-04-17T18:52:47.661Z,14.55
2023-04-17T18:55:18.107Z,13.80
2023-04-17T18:57:45.219Z,15.68
2023-04-17T19:00:13.224Z,14.23
2023-04-17T19:02:40.839Z,15.90
2023-04-17T19:05:08.752Z,16.25
2023-04-17T19:07:35.859Z,15.95
2023-04-17T19:10:03.226Z,16.10
2023-04-17T19:12:30.732Z,16.40
2023-04-17T19:14:58.067Z,17.77
2023-04-17T19:17:25.560Z,16.38
2023-04-17T19:19:52.993Z,17.27
2023-04-17T19:22:20.768Z,16.35
2023-04-17T19:24:50.234Z,16.30
2023-04-17T19:27:17.483Z,15.52
2023-04-17T19:29:45.687Z,19.38
2023-04-17T19:32:13.490Z,17.95
2023-04-17T19:34:40.842Z,17.48
2023-04-17T19:37:07.791Z,17.52
2023-04-17T19:39:35.258Z,16.67
2023-04-17T19:42:03.130Z,17.38
2023-04-17T19:44:30.586Z,16.90
2023-04-17T19:46:57.862Z,17.63
2023-04-17T19:49:25.608Z,17.38
2023-04-17T19:51:52.636Z,17.08
2023-04-17T19:54:19.994Z,18.42
2023-04-17T19:56:47.068Z,16.33
2023-04-17T19:59:14.650Z,17.70
2023-04-17T20:01:43.797Z,17.10
2023-04-17T20:04:11.493Z,17.33
2023-04-17T20:06:39.822Z,17.77
2023-04-17T20:09:07.184Z,17.55
2023-04-17T20:11:34.599Z,16.52
2023-04-17T20:14:02.175Z,17.85
2023-04-17T20:16:29.262Z,17.90
2023-04-17T20:18:56.884Z,19.00
2023-04-17T20:21:24.198Z,17.55
2023-04-17T20:23:51.595Z,17.60
2023-04-17T20:26:18.669Z,18.52
2023-04-17T20:28:46.066Z,17.27
2023-04-17T20:31:13.273Z,17.15
2023-04-17T20:33:40.983Z,17.88
2023-04-17T20:36:08.170Z,18.17
2023-04-17T20:38:35.638Z,18.75
2023-04-17T20:41:02.955Z,19.20
2023-04-17T20:43:32.477Z,18.98
2023-04-17T20:45:59.523Z,17.83
2023-04-17T20:48:27.077Z,16.90
2023-04-17T20:50:55.003Z,17.77
2023-04-17T20:53:22.377Z,18.15
2023-04-17T20:55:49.372Z,17.75
2023-04-17T20:58:16.699Z,17.60
2023-04-17T21:00:57.838Z,17.00
2023-04-17T21:03:30.947Z,16.38
2023-04-17T21:05:58.343Z,16.80
2023-04-17T21:08:26.212Z,18.05
2023-04-17T21:10:53.298Z,17.80
2023-04-17T21:13:22.817Z,17.63
2023-04-17T21:15:50.025Z,18.92
2023-04-17T21:18:17.396Z,16.50
2023-04-17T21:20:44.510Z,17.27
2023-04-17T21:23:11.906Z,18.15
2023-04-17T21:25:38.985Z,17.40
2023-04-17T21:28:06.478Z,16.13
2023-04-17T21:30:33.599Z,17.50
2023-04-17T21:33:01.065Z,16.95
2023-04-17T21:35:28.402Z,16.85
2023-04-17T21:37:55.692Z,17.27
2023-04-17T21:40:22.841Z,16.67
2023-04-17T21:42:50.177Z,16.95
2023-04-17T21:45:17.230Z,18.67
2023-04-17T21:47:44.579Z,17.90
2023-04-17T21:50:11.834Z,18.85
2023-04-17T21:52:39.169Z,17.63
2023-04-17T21:55:07.787Z,17.90
2023-04-17T21:57:35.577Z,17.67
2023-04-17T22:00:05.259Z,17.88
2023-04-17T22:02:34.107Z,17.38
2023-04-17T22:05:01.259Z,16.40
2023-04-17T22:07:28.850Z,18.20
2023-04-17T22:09:56.272Z,16.50
2023-04-17T22:12:23.668Z,18.15
2023-04-17T22:14:51.010Z,17.60
2023-04-17T22:17:18.352Z,16.48
2023-04-17T22:20:41.909Z,16.85
2023-04-17T22:24:24.468Z,15.35
2023-04-17T22:28:06.025Z,16.58
2023-04-17T22:31:48.596Z,18.15
2023-04-17T22:35:49.707Z,19.52
2023-04-17T22:39:32.101Z,18.70
2023-04-17T22:43:13.933Z,17.95
2023-04-17T22:46:56.441Z,17.70
2023-04-17T22:50:38.255Z,16.15
2023-04-17T22:54:23.103Z,17.20
2023-04-17T22:58:05.438Z,15.80
2023-04-17T23:01:47.833Z,15.30
2023-04-17T23:05:30.335Z,16.73
2023-04-17T23:09:12.721Z,17.08
2023-04-17T23:11:48.949Z,15.60
2023-04-17T23:14:16.289Z,16.40
2023-04-17T23:16:43.479Z,18.80
2023-04-17T23:19:10.758Z,16.70
2023-04-17T23:21:37.814Z,17.48
2023-04-17T23:24:05.221Z,17.35
2023-04-17T23:26:32.311Z,18.05
2023-04-17T23:29:00.018Z,18.48
2023-04-17T23:31:27.107Z,17.92
2023-04-17T23:33:54.469Z,16.55
2023-04-17T23:36:21.554Z,17.52
2023-04-17T23:38:48.807Z,15.48
2023-04-17T23:41:15.961Z,16.38
2023-04-17T23:43:43.337Z,17.05
2023-04-17T23:46:10.345Z,15.52
2023-04-17T23:48:37.761Z,16.73
2023-04-17T23:51:05.108Z,16.75
2023-04-17T23:53:32.449Z,14.85
2023-04-17T23:55:59.443Z,16.17
2023-04-17T23:58:26.813Z,14.55
